Time;durP1;ratioP1;P1;durP2;ratioP2;P2;SDS_P1;SDS_P2;PMS_P1;PMS_P2;Temp;Humidity;BMP_temperature;BMP_pressure;BME280_temperature;BME280_humidity;BME280_pressure;Samples;Min_cycle;Max_cycle;Signal;HPM_P1;HPM_P2
2021/03/14 00:01:10;;;;;;;;;;;20.50;35.00;;;;;;491618;240;1100;-45
2021/03/14 00:03:11;;;;;;;;;;;20.50;35.00;;;;;;492066;240;1096;-45
2021/03/14 00:05:12;;;;;;;;;;;20.50;35.00;;;;;;491823;240;1164;-45
2021/03/14 00:07:14;;;;;;;;;;;20.60;35.00;;;;;;491654;240;1214;-44
2021/03/14 00:09:15;;;;;;;;;;;20.60;34.90;;;;;;491649;240;1081;-44
2021/03/14 00:11:16;;;;;;;;;;;20.60;35.00;;;;;;491793;240;1354;-45
2021/03/14 00:13:18;;;;;;;;;;;20.60;35.00;;;;;;492077;240;1130;-44
2021/03/14 00:15:19;;;;;;;;;;;20.60;34.90;;;;;;491969;240;2113;-44
2021/03/14 00:17:20;;;;;;;;;;;20.60;34.90;;;;;;491593;240;1061;-45
2021/03/14 00:19:21;;;;;;;;;;;20.70;34.90;;;;;;491716;240;1037;-44
2021/03/14 00:21:23;;;;;;;;;;;20.70;34.90;;;;;;491572;240;1225;-44
2021/03/14 00:23:24;;;;;;;;;;;20.70;34.90;;;;;;491589;240;1113;-44
2021/03/14 00:25:25;;;;;;;;;;;20.70;34.80;;;;;;491663;240;1068;-44
2021/03/14 00:27:27;;;;;;;;;;;20.70;34.70;;;;;;492074;240;1184;-44
2021/03/14 00:29:28;;;;;;;;;;;20.80;34.70;;;;;;491919;240;1048;-44
2021/03/14 00:31:29;;;;;;;;;;;20.80;34.70;;;;;;491591;240;1452;-44
2021/03/14 00:33:30;;;;;;;;;;;20.80;34.70;;;;;;491673;240;1057;-44
2021/03/14 00:35:32;;;;;;;;;;;20.80;34.70;;;;;;491734;240;2191;-44
2021/03/14 00:37:33;;;;;;;;;;;20.80;34.70;;;;;;491706;240;1171;-44
2021/03/14 00:39:34;;;;;;;;;;;20.80;34.70;;;;;;491799;240;1521;-44
2021/03/14 00:41:36;;;;;;;;;;;20.80;34.70;;;;;;491782;238;1364;-44
2021/03/14 00:43:37;;;;;;;;;;;20.80;34.70;;;;;;491637;240;1009;-44
2021/03/14 00:45:38;;;;;;;;;;;20.80;34.70;;;;;;491922;240;995;-44
2021/03/14 00:47:39;;;;;;;;;;;20.80;34.60;;;;;;491692;240;1066;-44
2021/03/14 00:49:41;;;;;;;;;;;20.90;34.70;;;;;;491649;240;1032;-45
2021/03/14 00:51:42;;;;;;;;;;;20.90;34.60;;;;;;491748;240;1299;-45
2021/03/14 00:53:43;;;;;;;;;;;20.90;34.60;;;;;;491836;240;2129;-45
2021/03/14 00:55:45;;;;;;;;;;;20.90;34.60;;;;;;491608;240;1123;-45
2021/03/14 00:57:46;;;;;;;;;;;20.90;34.70;;;;;;491601;240;1070;-44
2021/03/14 00:59:47;;;;;;;;;;;20.90;34.60;;;;;;491722;240;1168;-45
2021/03/14 01:01:48;;;;;;;;;;;20.90;34.60;;;;;;491699;240;996;-45
2021/03/14 01:03:50;;;;;;;;;;;20.90;34.60;;;;;;491835;240;1029;-44
2021/03/14 01:05:51;;;;;;;;;;;20.90;34.60;;;;;;491599;240;1287;-44
2021/03/14 01:07:52;;;;;;;;;;;20.90;34.60;;;;;;491985;240;1084;-45
2021/03/14 01:09:53;;;;;;;;;;;20.90;34.60;;;;;;491912;240;1030;-44
2021/03/14 01:11:55;;;;;;;;;;;20.90;34.60;;;;;;491658;240;1129;-44
2021/03/14 01:13:56;;;;;;;;;;;21.00;34.60;;;;;;491646;240;2171;-45
2021/03/14 01:15:58;;;;;;;;;;;21.00;34.60;;;;;;491579;240;1055;-45
2021/03/14 01:17:59;;;;;;;;;;;21.00;34.60;;;;;;491619;240;1049;-44
2021/03/14 01:20:00;;;;;;;;;;;21.00;34.60;;;;;;492134;240;1092;-45
2021/03/14 01:22:02;;;;;;;;;;;21.00;34.50;;;;;;491810;240;1162;-45
2021/03/14 01:24:03;;;;;;;;;;;21.00;34.60;;;;;;492160;240;1092;-45
2021/03/14 01:26:04;;;;;;;;;;;21.00;34.50;;;;;;491831;240;1067;-45
2021/03/14 01:28:05;;;;;;;;;;;21.00;34.50;;;;;;491734;240;1182;-45
2021/03/14 01:30:07;;;;;;;;;;;21.00;34.50;;;;;;491954;240;1029;-45
2021/03/14 01:32:08;;;;;;;;;;;21.00;34.50;;;;;;491665;240;1007;-44
2021/03/14 01:34:09;;;;;;;;;;;21.00;34.50;;;;;;491643;240;2140;-45
2021/03/14 01:36:10;;;;;;;;;;;21.00;34.50;;;;;;491951;240;1142;-45
2021/03/14 01:38:12;;;;;;;;;;;21.00;34.50;;;;;;491639;240;999;-45
2021/03/14 01:40:13;;;;;;;;;;;21.10;34.50;;;;;;491843;240;1056;-44
2021/03/14 01:42:14;;;;;;;;;;;21.10;34.50;;;;;;491761;240;1073;-45
2021/03/14 01:44:16;;;;;;;;;;;21.10;34.50;;;;;;491662;240;1068;-44
2021/03/14 01:46:17;;;;;;;;;;;21.10;34.50;;;;;;491629;240;1053;-44
2021/03/14 01:48:18;;;;;;;;;;;21.10;34.50;;;;;;491680;240;1039;-45
2021/03/14 01:50:19;;;;;;;;;;;21.10;34.50;;;;;;491850;240;1087;-44
2021/03/14 01:52:21;;;;;;;;;;;21.10;34.40;;;;;;491611;240;1125;-44
2021/03/14 01:54:22;;;;;;;;;;;21.10;34.50;;;;;;491645;240;2180;-44
2021/03/14 01:56:23;;;;;;;;;;;21.10;34.50;;;;;;491599;240;1339;-45
2021/03/14 01:58:25;;;;;;;;;;;21.10;34.50;;;;;;491634;240;1067;-44
2021/03/14 02:00:26;;;;;;;;;;;21.10;34.40;;;;;;491657;240;1086;-45
2021/03/14 02:02:27;;;;;;;;;;;21.10;34.40;;;;;;491732;240;1064;-44
2021/03/14 02:04:28;;;;;;;;;;;21.10;34.50;;;;;;491636;240;1184;-45
2021/03/14 02:06:30;;;;;;;;;;;21.10;34.50;;;;;;491719;239;1312;-44
2021/03/14 02:08:31;;;;;;;;;;;21.10;34.50;;;;;;491654;240;960;-44
2021/03/14 02:10:32;;;;;;;;;;;21.20;34.50;;;;;;491634;240;1055;-45
2021/03/14 02:12:34;;;;;;;;;;;21.20;34.40;;;;;;491595;240;978;-44
2021/03/14 02:14:35;;;;;;;;;;;21.20;34.40;;;;;;491571;240;2129;-45
2021/03/14 02:16:36;;;;;;;;;;;21.20;34.40;;;;;;491604;240;1082;-45
2021/03/14 02:18:37;;;;;;;;;;;21.20;34.40;;;;;;491800;240;1364;-45
2021/03/14 02:20:39;;;;;;;;;;;21.20;34.40;;;;;;491687;240;1032;-44
2021/03/14 02:22:40;;;;;;;;;;;21.20;34.40;;;;;;491568;240;1159;-45
2021/03/14 02:24:41;;;;;;;;;;;21.20;34.40;;;;;;491794;240;1070;-45
2021/03/14 02:26:42;;;;;;;;;;;21.20;34.40;;;;;;491643;240;1035;-45
2021/03/14 02:28:44;;;;;;;;;;;21.20;34.40;;;;;;491803;240;1010;-45
2021/03/14 02:30:45;;;;;;;;;;;21.20;34.40;;;;;;491715;240;1019;-45
2021/03/14 02:32:46;;;;;;;;;;;21.20;34.40;;;;;;491736;240;1060;-45
2021/03/14 02:34:48;;;;;;;;;;;21.20;34.40;;;;;;491581;240;2196;-44
2021/03/14 02:36:49;;;;;;;;;;;21.20;34.40;;;;;;491729;240;1149;-45
2021/03/14 02:38:50;;;;;;;;;;;21.20;34.40;;;;;;491817;240;1019;-45
2021/03/14 02:40:51;;;;;;;;;;;21.20;34.40;;;;;;491650;240;1065;-45
2021/03/14 02:42:53;;;;;;;;;;;21.20;34.40;;;;;;491782;240;1061;-45
2021/03/14 02:44:54;;;;;;;;;;;21.20;34.30;;;;;;491625;240;1083;-44
2021/03/14 02:46:55;;;;;;;;;;;21.20;34.40;;;;;;491743;240;1086;-45
2021/03/14 02:48:56;;;;;;;;;;;21.30;34.40;;;;;;491630;240;1068;-45
2021/03/14 02:50:58;;;;;;;;;;;21.30;34.40;;;;;;491689;240;1049;-45
2021/03/14 02:52:59;;;;;;;;;;;21.30;34.40;;;;;;491659;240;1229;-45
2021/03/14 02:55:00;;;;;;;;;;;21.30;34.40;;;;;;491641;240;2183;-45
2021/03/14 02:57:02;;;;;;;;;;;21.20;34.30;;;;;;491672;240;1028;-45
2021/03/14 02:59:03;;;;;;;;;;;21.30;34.40;;;;;;491629;240;1074;-45
2021/03/14 03:01:04;;;;;;;;;;;21.30;34.40;;;;;;491664;240;1074;-45
2021/03/14 03:03:05;;;;;;;;;;;21.30;34.40;;;;;;491849;240;1344;-45
2021/03/14 03:05:07;;;;;;;;;;;21.30;34.30;;;;;;491683;240;1062;-45
2021/03/14 03:07:08;;;;;;;;;;;21.30;34.40;;;;;;491773;240;1288;-44
2021/03/14 03:09:09;;;;;;;;;;;21.30;34.40;;;;;;491784;240;1053;-45
2021/03/14 03:11:11;;;;;;;;;;;21.30;34.30;;;;;;491974;240;1056;-45
2021/03/14 03:13:12;;;;;;;;;;;21.30;34.30;;;;;;491668;240;1037;-44
2021/03/14 03:15:13;;;;;;;;;;;21.30;34.30;;;;;;491645;240;2197;-45
2021/03/14 03:17:14;;;;;;;;;;;21.30;34.40;;;;;;491660;240;1026;-45
2021/03/14 03:19:16;;;;;;;;;;;21.30;34.30;;;;;;492151;240;1137;-44
2021/03/14 03:21:17;;;;;;;;;;;21.30;34.30;;;;;;491960;240;1096;-45
2021/03/14 03:23:18;;;;;;;;;;;21.30;34.30;;;;;;491715;240;1198;-45
2021/03/14 03:25:20;;;;;;;;;;;21.30;34.30;;;;;;491664;240;1062;-45
2021/03/14 03:27:21;;;;;;;;;;;21.30;34.30;;;;;;491652;240;1084;-45
2021/03/14 03:29:22;;;;;;;;;;;21.30;34.30;;;;;;491609;240;1023;-44
2021/03/14 03:31:23;;;;;;;;;;;21.40;34.30;;;;;;491580;240;1192;-45
2021/03/14 03:33:25;;;;;;;;;;;21.40;34.30;;;;;;491618;240;1103;-44
2021/03/14 03:35:26;;;;;;;;;;;21.40;34.40;;;;;;492101;240;2148;-44
2021/03/14 03:37:27;;;;;;;;;;;21.40;34.40;;;;;;491711;240;1275;-45
2021/03/14 03:39:28;;;;;;;;;;;21.40;34.40;;;;;;491689;240;987;-45
2021/03/14 03:41:30;;;;;;;;;;;21.40;34.30;;;;;;491541;240;1509;-45
2021/03/14 03:43:31;;;;;;;;;;;21.40;34.30;;;;;;492123;240;1022;-45
2021/03/14 03:45:32;;;;;;;;;;;21.40;34.30;;;;;;491768;240;1069;-45
2021/03/14 03:47:34;;;;;;;;;;;21.40;34.30;;;;;;491609;240;1153;-44
2021/03/14 03:49:35;;;;;;;;;;;21.40;34.30;;;;;;491639;240;1207;-45
2021/03/14 03:51:36;;;;;;;;;;;21.40;34.30;;;;;;491814;240;1249;-45
2021/03/14 03:53:38;;;;;;;;;;;21.40;34.30;;;;;;491704;240;1193;-44
2021/03/14 03:55:39;;;;;;;;;;;21.40;34.30;;;;;;491754;240;2136;-45
2021/03/14 03:57:40;;;;;;;;;;;21.40;34.30;;;;;;491672;240;1137;-44
2021/03/14 03:59:41;;;;;;;;;;;21.40;34.30;;;;;;491846;240;1026;-45
2021/03/14 04:01:43;;;;;;;;;;;21.40;34.30;;;;;;491661;240;1053;-45
2021/03/14 04:03:44;;;;;;;;;;;21.40;34.20;;;;;;492086;240;992;-45
2021/03/14 04:05:45;;;;;;;;;;;21.40;34.30;;;;;;492123;240;1111;-45
2021/03/14 04:07:46;;;;;;;;;;;21.40;34.30;;;;;;491784;240;1303;-45
2021/03/14 04:09:48;;;;;;;;;;;21.40;34.30;;;;;;491779;240;1051;-44
2021/03/14 04:11:49;;;;;;;;;;;21.40;34.30;;;;;;491598;240;1000;-45
2021/03/14 04:13:50;;;;;;;;;;;21.50;34.30;;;;;;491720;240;1046;-44
2021/03/14 04:15:52;;;;;;;;;;;21.50;34.30;;;;;;491855;240;2191;-45
2021/03/14 04:17:53;;;;;;;;;;;21.40;34.20;;;;;;491722;240;1153;-45
2021/03/14 04:19:54;;;;;;;;;;;21.50;34.30;;;;;;491642;240;1197;-45
2021/03/14 04:21:55;;;;;;;;;;;21.50;34.30;;;;;;491660;240;1041;-45
2021/03/14 04:23:57;;;;;;;;;;;21.40;34.30;;;;;;491848;240;1170;-44
2021/03/14 04:25:58;;;;;;;;;;;21.50;34.30;;;;;;491934;240;1030;-44
2021/03/14 04:27:59;;;;;;;;;;;21.40;34.30;;;;;;491620;240;1073;-45
2021/03/14 04:30:00;;;;;;;;;;;21.50;34.30;;;;;;491885;240;1086;-45
2021/03/14 04:32:02;;;;;;;;;;;21.50;34.20;;;;;;491711;240;1422;-44
2021/03/14 04:34:03;;;;;;;;;;;21.50;34.30;;;;;;491611;240;1033;-45
2021/03/14 04:36:05;;;;;;;;;;;21.50;34.30;;;;;;491721;240;2141;-45
2021/03/14 04:38:06;;;;;;;;;;;21.50;34.30;;;;;;491645;240;1138;-45
2021/03/14 04:40:07;;;;;;;;;;;21.50;34.20;;;;;;492042;240;1055;-44
2021/03/14 04:42:09;;;;;;;;;;;21.50;34.20;;;;;;491666;240;1142;-44
2021/03/14 04:44:10;;;;;;;;;;;21.50;34.20;;;;;;491636;240;985;-44
2021/03/14 04:46:11;;;;;;;;;;;21.50;34.20;;;;;;491600;240;1088;-45
2021/03/14 04:48:13;;;;;;;;;;;21.50;34.20;;;;;;491850;240;936;-45
2021/03/14 04:50:14;;;;;;;;;;;21.50;34.20;;;;;;491803;240;1032;-44
2021/03/14 04:52:15;;;;;;;;;;;21.50;34.20;;;;;;491554;240;1172;-45
2021/03/14 04:54:16;;;;;;;;;;;21.50;34.20;;;;;;491614;240;1175;-45
2021/03/14 04:56:18;;;;;;;;;;;21.50;34.20;;;;;;491678;240;2153;-45
2021/03/14 04:58:19;;;;;;;;;;;21.50;34.20;;;;;;491714;240;1103;-45
2021/03/14 05:00:20;;;;;;;;;;;21.60;34.20;;;;;;491851;240;1027;-44
2021/03/14 05:02:22;;;;;;;;;;;21.60;34.20;;;;;;491725;240;1298;-45
2021/03/14 05:04:23;;;;;;;;;;;21.60;34.20;;;;;;491779;240;998;-45
2021/03/14 05:06:24;;;;;;;;;;;21.60;34.10;;;;;;491667;240;1111;-45
2021/03/14 05:08:25;;;;;;;;;;;21.60;34.20;;;;;;491867;240;1361;-45
2021/03/14 05:10:27;;;;;;;;;;;21.60;34.10;;;;;;491716;240;1604;-44
2021/03/14 05:12:28;;;;;;;;;;;21.60;34.20;;;;;;491746;240;1102;-45
2021/03/14 05:14:29;;;;;;;;;;;21.60;34.20;;;;;;491699;240;1048;-45
2021/03/14 05:16:30;;;;;;;;;;;21.60;34.20;;;;;;491550;240;2188;-44
2021/03/14 05:18:32;;;;;;;;;;;21.60;34.20;;;;;;491734;240;961;-44
2021/03/14 05:20:33;;;;;;;;;;;21.60;34.20;;;;;;491679;240;1027;-45
2021/03/14 05:22:34;;;;;;;;;;;21.60;34.20;;;;;;491804;240;1075;-45
2021/03/14 05:24:36;;;;;;;;;;;21.60;34.20;;;;;;491644;240;1353;-44
2021/03/14 05:26:37;;;;;;;;;;;21.60;34.20;;;;;;491755;240;1016;-45
2021/03/14 05:28:38;;;;;;;;;;;21.60;34.20;;;;;;491655;240;1062;-45
2021/03/14 05:30:39;;;;;;;;;;;21.60;34.20;;;;;;491866;240;1036;-45
2021/03/14 05:32:41;;;;;;;;;;;21.60;34.20;;;;;;491717;240;1061;-44
2021/03/14 05:34:42;;;;;;;;;;;21.60;34.20;;;;;;491672;240;989;-45
2021/03/14 05:36:43;;;;;;;;;;;21.60;34.20;;;;;;491642;240;2145;-45
2021/03/14 05:38:45;;;;;;;;;;;21.60;34.20;;;;;;491904;240;1068;-45
2021/03/14 05:40:46;;;;;;;;;;;21.60;34.20;;;;;;491673;240;1181;-44
2021/03/14 05:42:47;;;;;;;;;;;21.60;34.20;;;;;;491665;240;1678;-45
2021/03/14 05:44:48;;;;;;;;;;;21.60;34.20;;;;;;491791;240;1031;-44
2021/03/14 05:46:50;;;;;;;;;;;21.60;34.10;;;;;;491882;240;1160;-44
2021/03/14 05:48:51;;;;;;;;;;;21.60;34.20;;;;;;491822;240;1080;-45
2021/03/14 05:50:52;;;;;;;;;;;21.60;34.20;;;;;;491831;240;1157;-45
2021/03/14 05:52:53;;;;;;;;;;;21.60;34.20;;;;;;491835;240;1169;-45
2021/03/14 05:54:55;;;;;;;;;;;21.60;34.20;;;;;;491652;240;1144;-44
2021/03/14 05:56:56;;;;;;;;;;;21.60;34.10;;;;;;491701;240;2121;-45
2021/03/14 05:58:57;;;;;;;;;;;21.60;34.20;;;;;;491707;240;1059;-44
2021/03/14 06:00:59;;;;;;;;;;;21.60;34.20;;;;;;491779;240;1323;-44
2021/03/14 06:03:00;;;;;;;;;;;21.60;34.20;;;;;;491647;240;1191;-45
2021/03/14 06:05:01;;;;;;;;;;;21.60;34.10;;;;;;491728;240;1017;-45
2021/03/14 06:07:02;;;;;;;;;;;21.70;34.10;;;;;;491920;240;1163;-44
2021/03/14 06:09:04;;;;;;;;;;;21.60;34.20;;;;;;491648;240;1085;-45
2021/03/14 06:11:05;;;;;;;;;;;21.60;34.10;;;;;;491620;240;1232;-45
2021/03/14 06:13:07;;;;;;;;;;;21.70;34.20;;;;;;492067;240;1089;-44
2021/03/14 06:15:08;;;;;;;;;;;21.60;34.20;;;;;;491689;240;1056;-45
2021/03/14 06:17:09;;;;;;;;;;;21.60;34.10;;;;;;491785;240;2218;-45
2021/03/14 06:19:10;;;;;;;;;;;21.70;34.20;;;;;;491685;240;1327;-45
2021/03/14 06:21:12;;;;;;;;;;;21.60;34.10;;;;;;491634;240;1114;-45
2021/03/14 06:23:13;;;;;;;;;;;21.60;34.20;;;;;;491789;240;1101;-45
2021/03/14 06:25:15;;;;;;;;;;;21.60;34.20;;;;;;491686;240;1125;-45
2021/03/14 06:27:16;;;;;;;;;;;21.60;34.20;;;;;;491761;240;1106;-45
2021/03/14 06:29:17;;;;;;;;;;;21.70;34.20;;;;;;491663;240;1069;-45
2021/03/14 06:31:19;;;;;;;;;;;21.60;34.10;;;;;;491641;240;1388;-45
2021/03/14 06:33:20;;;;;;;;;;;21.70;34.10;;;;;;491728;240;1061;-44
2021/03/14 06:35:21;;;;;;;;;;;21.70;34.10;;;;;;491665;240;1052;-44
2021/03/14 06:37:22;;;;;;;;;;;21.70;34.10;;;;;;491664;240;2132;-45
2021/03/14 06:39:24;;;;;;;;;;;21.70;34.20;;;;;;491724;240;1056;-44
2021/03/14 06:41:25;;;;;;;;;;;21.60;34.10;;;;;;491608;240;1145;-45
2021/03/14 06:43:26;;;;;;;;;;;21.70;34.10;;;;;;491638;240;1067;-45
2021/03/14 06:45:28;;;;;;;;;;;21.70;34.20;;;;;;491837;240;1160;-45
2021/03/14 06:47:29;;;;;;;;;;;21.70;34.20;;;;;;491971;240;1051;-45
2021/03/14 06:49:30;;;;;;;;;;;21.70;34.20;;;;;;491634;240;1001;-45
2021/03/14 06:51:31;;;;;;;;;;;21.70;34.20;;;;;;491644;240;1203;-44
2021/03/14 06:53:33;;;;;;;;;;;21.60;34.20;;;;;;491704;240;1055;-45
2021/03/14 06:55:34;;;;;;;;;;;21.70;34.20;;;;;;491911;240;1148;-45
2021/03/14 06:57:35;;;;;;;;;;;21.70;34.20;;;;;;491780;240;2196;-45
2021/03/14 06:59:36;;;;;;;;;;;21.70;34.20;;;;;;491657;240;1157;-45
2021/03/14 07:01:38;;;;;;;;;;;21.70;34.10;;;;;;491694;240;1154;-45
2021/03/14 07:03:39;;;;;;;;;;;21.70;34.20;;;;;;491642;240;1112;-45
2021/03/14 07:05:40;;;;;;;;;;;21.70;34.20;;;;;;491723;240;1317;-45
2021/03/14 07:07:42;;;;;;;;;;;21.70;34.20;;;;;;491644;240;1128;-44
2021/03/14 07:09:43;;;;;;;;;;;21.70;34.20;;;;;;491607;240;1052;-44
2021/03/14 07:11:45;;;;;;;;;;;21.70;34.10;;;;;;491512;240;1241;-45
2021/03/14 07:13:45;;;;;;;;;;;21.60;34.10;;;;;;491623;240;1967;-44
2021/03/14 07:15:47;;;;;;;;;;;21.70;34.20;;;;;;491895;240;1121;-45
2021/03/14 07:17:48;;;;;;;;;;;21.70;34.20;;;;;;491729;240;2188;-44
2021/03/14 07:19:49;;;;;;;;;;;21.70;34.20;;;;;;491763;240;1088;-44
2021/03/14 07:21:51;;;;;;;;;;;21.70;34.20;;;;;;491902;240;1342;-45
2021/03/14 07:23:52;;;;;;;;;;;21.70;34.20;;;;;;491957;240;1127;-45
2021/03/14 07:25:53;;;;;;;;;;;21.70;34.20;;;;;;491564;240;1292;-45
2021/03/14 07:27:54;;;;;;;;;;;21.70;34.20;;;;;;491493;240;1384;-44
2021/03/14 07:29:56;;;;;;;;;;;21.70;34.20;;;;;;491655;240;1043;-45
2021/03/14 07:31:57;;;;;;;;;;;21.70;34.20;;;;;;491592;240;1128;-45
2021/03/14 07:33:58;;;;;;;;;;;21.70;34.20;;;;;;491653;240;1074;-45
2021/03/14 07:35:59;;;;;;;;;;;21.70;34.20;;;;;;491989;240;2184;-44
2021/03/14 07:38:01;;;;;;;;;;;21.70;34.20;;;;;;491896;240;1088;-45
2021/03/14 07:40:02;;;;;;;;;;;21.70;34.20;;;;;;491648;240;1061;-45
2021/03/14 07:42:03;;;;;;;;;;;21.70;34.20;;;;;;491409;240;1215;-45
2021/03/14 07:44:05;;;;;;;;;;;21.70;34.10;;;;;;491505;240;1059;-44
2021/03/14 07:46:06;;;;;;;;;;;21.70;34.20;;;;;;491601;240;1407;-44
2021/03/14 07:48:07;;;;;;;;;;;21.70;34.20;;;;;;491603;240;1173;-44
2021/03/14 07:50:08;;;;;;;;;;;21.70;34.20;;;;;;491613;240;949;-45
2021/03/14 07:52:10;;;;;;;;;;;21.70;34.20;;;;;;491435;240;1334;-45
2021/03/14 07:54:11;;;;;;;;;;;21.70;34.10;;;;;;491539;240;1061;-45
2021/03/14 07:56:13;;;;;;;;;;;21.70;34.20;;;;;;491651;240;2152;-45
2021/03/14 07:58:14;;;;;;;;;;;21.70;34.20;;;;;;491599;240;1177;-45
2021/03/14 08:00:15;;;;;;;;;;;21.70;34.20;;;;;;491697;240;997;-45
2021/03/14 08:02:16;;;;;;;;;;;21.70;34.20;;;;;;491553;240;1099;-45
2021/03/14 08:04:18;;;;;;;;;;;21.70;34.20;;;;;;491491;240;1132;-45
2021/03/14 08:06:19;;;;;;;;;;;21.70;34.20;;;;;;491626;240;1370;-44
2021/03/14 08:08:20;;;;;;;;;;;21.70;34.20;;;;;;491670;240;1124;-44
2021/03/14 08:10:22;;;;;;;;;;;21.70;34.20;;;;;;491634;240;1208;-45
2021/03/14 08:12:23;;;;;;;;;;;21.70;34.20;;;;;;491536;240;1138;-44
2021/03/14 08:14:24;;;;;;;;;;;21.70;34.10;;;;;;491591;240;982;-45
2021/03/14 08:16:25;;;;;;;;;;;21.70;34.20;;;;;;491620;240;2195;-44
2021/03/14 08:18:27;;;;;;;;;;;21.70;34.20;;;;;;491505;240;1053;-45
2021/03/14 08:20:28;;;;;;;;;;;21.70;34.20;;;;;;491616;240;1134;-44
2021/03/14 08:22:29;;;;;;;;;;;21.70;34.20;;;;;;491515;240;1181;-45
2021/03/14 08:24:30;;;;;;;;;;;21.70;34.20;;;;;;491566;240;999;-44
2021/03/14 08:26:33;;;;;;;;;;;21.70;34.20;;;;;;491440;238;1302;-45
2021/03/14 08:28:34;;;;;;;;;;;21.70;34.20;;;;;;491639;240;1042;-44
2021/03/14 08:30:35;;;;;;;;;;;21.70;34.10;;;;;;491537;240;1154;-45
2021/03/14 08:32:36;;;;;;;;;;;21.70;34.20;;;;;;491543;240;1059;-45
2021/03/14 08:34:37;;;;;;;;;;;21.70;34.10;;;;;;491559;240;1027;-45
2021/03/14 08:36:39;;;;;;;;;;;21.70;34.10;;;;;;491485;240;2180;-45
2021/03/14 08:38:40;;;;;;;;;;;21.70;34.10;;;;;;491525;240;1089;-45
2021/03/14 08:40:41;;;;;;;;;;;21.70;34.10;;;;;;491550;240;1106;-45
2021/03/14 08:42:43;;;;;;;;;;;21.70;34.10;;;;;;491620;240;1161;-45
2021/03/14 08:44:44;;;;;;;;;;;21.80;34.20;;;;;;492037;240;1073;-45
2021/03/14 08:46:45;;;;;;;;;;;21.70;34.10;;;;;;491546;240;1120;-45
2021/03/14 08:48:46;;;;;;;;;;;21.70;34.20;;;;;;491692;240;1070;-44
2021/03/14 08:50:48;;;;;;;;;;;21.80;34.10;;;;;;491559;240;1111;-45
2021/03/14 08:52:49;;;;;;;;;;;21.70;34.10;;;;;;491524;240;1151;-44
2021/03/14 08:54:50;;;;;;;;;;;21.70;34.10;;;;;;491692;240;1082;-45
2021/03/14 08:56:52;;;;;;;;;;;21.70;34.20;;;;;;491483;240;2259;-45
2021/03/14 08:58:53;;;;;;;;;;;21.70;34.20;;;;;;491525;240;1102;-45
2021/03/14 09:00:54;;;;;;;;;;;21.70;34.10;;;;;;491530;240;1144;-45
2021/03/14 09:02:55;;;;;;;;;;;21.70;34.10;;;;;;491541;240;1078;-45
2021/03/14 09:04:57;;;;;;;;;;;21.70;34.20;;;;;;491597;240;1152;-44
2021/03/14 09:06:58;;;;;;;;;;;21.80;34.20;;;;;;491554;240;1225;-45
2021/03/14 09:08:59;;;;;;;;;;;21.70;34.10;;;;;;491619;240;1035;-45
2021/03/14 09:11:01;;;;;;;;;;;21.70;34.10;;;;;;491749;240;1087;-44
2021/03/14 09:13:02;;;;;;;;;;;21.70;34.20;;;;;;491633;240;1197;-45
2021/03/14 09:15:03;;;;;;;;;;;21.70;34.10;;;;;;491493;240;1068;-44
2021/03/14 09:17:05;;;;;;;;;;;21.70;34.10;;;;;;491535;240;2208;-44
2021/03/14 09:19:06;;;;;;;;;;;21.80;34.20;;;;;;491683;240;1043;-45
2021/03/14 09:21:08;;;;;;;;;;;21.80;34.10;;;;;;491467;240;1168;-44
2021/03/14 09:23:13;;;;;;;;;;;21.80;34.10;;;;;;491679;240;1041;-45
2021/03/14 09:25:10;;;;;;;;;;;21.80;34.10;;;;;;491532;242;2185;-45
2021/03/14 09:27:12;;;;;;;;;;;21.80;34.10;;;;;;491644;240;1145;-44
2021/03/14 09:29:13;;;;;;;;;;;21.80;34.10;;;;;;491543;240;989;-45
2021/03/14 09:31:14;;;;;;;;;;;21.80;34.10;;;;;;491441;240;1180;-45
2021/03/14 09:33:15;;;;;;;;;;;21.80;34.10;;;;;;491506;240;1127;-45
2021/03/14 09:35:17;;;;;;;;;;;21.80;34.10;;;;;;491677;240;1056;-44
2021/03/14 09:37:18;;;;;;;;;;;21.80;34.10;;;;;;491522;240;2191;-44
2021/03/14 09:39:19;;;;;;;;;;;21.80;34.10;;;;;;491520;240;1042;-45
2021/03/14 09:41:21;;;;;;;;;;;21.80;34.10;;;;;;491517;240;1179;-44
2021/03/14 09:43:22;;;;;;;;;;;21.70;34.10;;;;;;491589;240;1318;-45
2021/03/14 09:45:23;;;;;;;;;;;21.80;34.10;;;;;;491723;240;1257;-45
2021/03/14 09:47:25;;;;;;;;;;;21.80;34.10;;;;;;491505;240;1218;-45
2021/03/14 09:49:26;;;;;;;;;;;21.80;34.10;;;;;;491596;240;1066;-45
2021/03/14 09:51:27;;;;;;;;;;;21.80;34.00;;;;;;491501;240;1045;-45
2021/03/14 09:53:28;;;;;;;;;;;21.80;34.10;;;;;;491597;240;1036;-45
2021/03/14 09:55:30;;;;;;;;;;;21.80;34.10;;;;;;491600;240;1082;-45
2021/03/14 09:57:31;;;;;;;;;;;21.80;34.10;;;;;;491626;240;2183;-45
2021/03/14 09:59:33;;;;;;;;;;;21.80;34.20;;;;;;491623;240;1103;-45
2021/03/14 10:01:34;;;;;;;;;;;21.80;34.10;;;;;;491627;240;1033;-44
2021/03/14 10:03:35;;;;;;;;;;;21.80;34.10;;;;;;491669;240;1054;-45
2021/03/14 10:05:37;;;;;;;;;;;21.70;34.10;;;;;;491794;240;997;-44
2021/03/14 10:07:38;;;;;;;;;;;21.90;34.00;;;;;;491775;240;1226;-45
2021/03/14 10:09:39;;;;;;;;;;;21.70;34.10;;;;;;491578;240;1068;-45
2021/03/14 10:11:40;;;;;;;;;;;21.30;34.90;;;;;;491752;240;1174;-44
2021/03/14 10:13:43;;;;;;;;;;;20.70;35.80;;;;;;491657;240;1121;-45
2021/03/14 10:15:44;;;;;;;;;;;20.40;36.50;;;;;;491741;240;1981;-44
2021/03/14 10:17:45;;;;;;;;;;;20.10;37.10;;;;;;491567;240;2144;-44
2021/03/14 10:19:47;;;;;;;;;;;19.90;37.50;;;;;;491649;240;1023;-44
2021/03/14 10:21:48;;;;;;;;;;;19.80;37.80;;;;;;491611;240;1366;-44
2021/03/14 10:23:49;;;;;;;;;;;19.60;37.90;;;;;;491984;240;1047;-44
2021/03/14 10:25:50;;;;;;;;;;;19.50;38.10;;;;;;491553;240;1039;-44
2021/03/14 10:27:52;;;;;;;;;;;19.50;38.30;;;;;;491597;240;1189;-44
2021/03/14 10:29:53;;;;;;;;;;;19.40;38.40;;;;;;491654;240;1123;-44
2021/03/14 10:31:54;;;;;;;;;;;19.40;38.50;;;;;;491490;240;1180;-44
2021/03/14 10:33:56;;;;;;;;;;;19.30;38.60;;;;;;491764;240;1052;-44
2021/03/14 10:35:57;;;;;;;;;;;19.30;38.70;;;;;;491503;240;1264;-44
2021/03/14 10:37:58;;;;;;;;;;;19.30;38.80;;;;;;491589;240;2193;-44
2021/03/14 10:39:59;;;;;;;;;;;19.20;38.80;;;;;;491561;240;1069;-44
2021/03/14 10:42:01;;;;;;;;;;;19.20;38.80;;;;;;491709;240;1010;-44
2021/03/14 10:44:02;;;;;;;;;;;19.10;38.90;;;;;;491681;240;1194;-44
2021/03/14 10:46:03;;;;;;;;;;;19.10;39.00;;;;;;491919;240;1067;-44
2021/03/14 10:48:04;;;;;;;;;;;19.10;39.00;;;;;;491690;240;1169;-44
2021/03/14 10:50:06;;;;;;;;;;;19.10;39.00;;;;;;491788;240;1076;-44
2021/03/14 10:52:07;;;;;;;;;;;19.00;39.10;;;;;;491759;240;1132;-44
2021/03/14 10:54:08;;;;;;;;;;;19.00;39.10;;;;;;491523;240;1060;-44
2021/03/14 10:56:12;;;;;;;;;;;19.00;39.10;;;;;;491758;240;1130;-44
2021/03/14 10:58:11;;;;;;;;;;;19.00;39.10;;;;;;491519;242;2211;-44
2021/03/14 11:00:14;;;;;;;;;;;18.90;39.20;;;;;;491721;240;1042;-45
2021/03/14 11:02:14;;;;;;;;;;;19.00;39.10;;;;;;491580;240;1355;-44
2021/03/14 11:04:15;;;;;;;;;;;18.90;39.10;;;;;;491606;240;1391;-44
2021/03/14 11:06:16;;;;;;;;;;;18.90;39.20;;;;;;491760;240;1052;-44
2021/03/14 11:08:17;;;;;;;;;;;18.90;39.20;;;;;;491554;240;1102;-44
2021/03/14 11:10:19;;;;;;;;;;;18.90;39.20;;;;;;491585;240;1039;-44
2021/03/14 11:12:20;;;;;;;;;;;18.90;39.10;;;;;;491531;240;1023;-44
2021/03/14 11:14:21;;;;;;;;;;;18.90;39.20;;;;;;491576;240;1188;-44
2021/03/14 11:16:23;;;;;;;;;;;18.80;39.20;;;;;;491645;240;1066;-44
2021/03/14 11:18:24;;;;;;;;;;;18.80;39.20;;;;;;491730;240;2144;-44
2021/03/14 11:20:25;;;;;;;;;;;18.80;39.20;;;;;;491687;240;994;-44
2021/03/14 11:22:26;;;;;;;;;;;18.80;39.20;;;;;;491523;240;1160;-44
2021/03/14 11:24:28;;;;;;;;;;;18.80;39.20;;;;;;491775;240;1047;-44
2021/03/14 11:26:29;;;;;;;;;;;18.80;39.20;;;;;;491585;240;1129;-44
2021/03/14 11:28:30;;;;;;;;;;;18.70;39.20;;;;;;491625;240;1154;-44
2021/03/14 11:30:31;;;;;;;;;;;18.80;39.20;;;;;;491890;240;1053;-44
2021/03/14 11:32:33;;;;;;;;;;;18.80;39.30;;;;;;491565;240;1207;-44
2021/03/14 11:34:34;;;;;;;;;;;18.70;39.30;;;;;;491727;240;1075;-44
2021/03/14 11:36:35;;;;;;;;;;;18.70;39.30;;;;;;491836;240;1133;-44
2021/03/14 11:38:37;;;;;;;;;;;18.70;39.30;;;;;;491616;240;2168;-44
2021/03/14 11:40:38;;;;;;;;;;;18.70;39.20;;;;;;491633;240;1070;-44
2021/03/14 11:42:39;;;;;;;;;;;18.70;39.30;;;;;;491583;240;1030;-44
2021/03/14 11:44:40;;;;;;;;;;;18.70;39.30;;;;;;491731;240;1166;-45
2021/03/14 11:46:42;;;;;;;;;;;18.70;39.30;;;;;;491606;240;1184;-44
2021/03/14 11:48:43;;;;;;;;;;;18.60;39.30;;;;;;491694;240;1097;-44
2021/03/14 11:50:44;;;;;;;;;;;18.60;39.30;;;;;;492080;240;1055;-44
2021/03/14 11:52:49;;;;;;;;;;;18.60;39.20;;;;;;491638;240;1107;-44
2021/03/14 11:54:48;;;;;;;;;;;18.60;39.30;;;;;;491502;242;2164;-44
2021/03/14 11:56:49;;;;;;;;;;;18.60;39.30;;;;;;491503;240;1134;-44